sensor_id;sensor_type;location;lat;lon;timestamp;temperature;humidity
18882;DHT22;9573;50.948;11.600;2022-07-23T00:00:20;19.70;99.90
18882;DHT22;9573;50.948;11.600;2022-07-23T00:02:47;19.80;99.90
18882;DHT22;9573;50.948;11.600;2022-07-23T00:05:14;19.70;99.90
18882;DHT22;9573;50.948;11.600;2022-07-23T00:07:41;19.70;99.90
18882;DHT22;9573;50.948;11.600;2022-07-23T00:10:10;19.80;99.90
18882;DHT22;9573;50.948;11.600;2022-07-23T00:12:38;19.80;99.90
18882;DHT22;9573;50.948;11.600;2022-07-23T00:15:07;19.80;99.90
18882;DHT22;9573;50.948;11.600;2022-07-23T00:17:35;19.80;99.90
18882;DHT22;9573;50.948;11.600;2022-07-23T00:20:02;19.80;99.90
18882;DHT22;9573;50.948;11.600;2022-07-23T00:22:30;19.70;99.90
18882;DHT22;9573;50.948;11.600;2022-07-23T00:24:57;19.70;99.90
18882;DHT22;9573;50.948;11.600;2022-07-23T00:27:26;19.60;99.90
18882;DHT22;9573;50.948;11.600;2022-07-23T00:29:53;19.60;99.90
18882;DHT22;9573;50.948;11.600;2022-07-23T00:32:20;19.60;99.90
18882;DHT22;9573;50.948;11.600;2022-07-23T00:34:47;19.60;99.90
18882;DHT22;9573;50.948;11.600;2022-07-23T00:37:14;19.50;99.90
18882;DHT22;9573;50.948;11.600;2022-07-23T00:39:41;19.50;99.90
18882;DHT22;9573;50.948;11.600;2022-07-23T00:42:08;19.50;99.90
18882;DHT22;9573;50.948;11.600;2022-07-23T00:44:37;19.50;99.90
18882;DHT22;9573;50.948;11.600;2022-07-23T00:47:04;19.50;99.90
18882;DHT22;9573;50.948;11.600;2022-07-23T00:49:32;19.50;99.90
18882;DHT22;9573;50.948;11.600;2022-07-23T00:52:02;19.50;99.90
18882;DHT22;9573;50.948;11.600;2022-07-23T00:54:29;19.50;99.90
18882;DHT22;9573;50.948;11.600;2022-07-23T00:56:57;19.50;99.90
18882;DHT22;9573;50.948;11.600;2022-07-23T00:59:24;19.50;99.90
18882;DHT22;9573;50.948;11.600;2022-07-23T01:01:52;19.50;99.90
18882;DHT22;9573;50.948;11.600;2022-07-23T01:04:19;19.50;99.90
18882;DHT22;9573;50.948;11.600;2022-07-23T01:06:47;19.50;99.90
18882;DHT22;9573;50.948;11.600;2022-07-23T01:09:14;19.50;99.90
18882;DHT22;9573;50.948;11.600;2022-07-23T01:11:41;19.60;99.90
18882;DHT22;9573;50.948;11.600;2022-07-23T01:14:10;19.60;99.90
18882;DHT22;9573;50.948;11.600;2022-07-23T01:16:38;19.60;99.90
18882;DHT22;9573;50.948;11.600;2022-07-23T01:19:07;19.60;99.90
18882;DHT22;9573;50.948;11.600;2022-07-23T01:21:36;19.60;99.90
18882;DHT22;9573;50.948;11.600;2022-07-23T01:24:06;19.60;99.90
18882;DHT22;9573;50.948;11.600;2022-07-23T01:26:34;19.60;99.90
18882;DHT22;9573;50.948;11.600;2022-07-23T01:29:01;19.60;99.90
18882;DHT22;9573;50.948;11.600;2022-07-23T01:31:29;19.60;99.90
18882;DHT22;9573;50.948;11.600;2022-07-23T01:33:57;19.60;99.90
18882;DHT22;9573;50.948;11.600;2022-07-23T01:36:24;19.60;99.90
18882;DHT22;9573;50.948;11.600;2022-07-23T01:38:51;19.60;99.90
18882;DHT22;9573;50.948;11.600;2022-07-23T01:41:20;19.60;99.90
18882;DHT22;9573;50.948;11.600;2022-07-23T01:43:47;19.60;99.90
18882;DHT22;9573;50.948;11.600;2022-07-23T01:46:14;19.50;99.90
18882;DHT22;9573;50.948;11.600;2022-07-23T01:48:41;19.50;99.90
18882;DHT22;9573;50.948;11.600;2022-07-23T01:51:09;19.40;99.90
18882;DHT22;9573;50.948;11.600;2022-07-23T01:53:36;19.40;99.90
18882;DHT22;9573;50.948;11.600;2022-07-23T01:56:04;19.30;99.90
18882;DHT22;9573;50.948;11.600;2022-07-23T01:58:33;19.20;99.90
18882;DHT22;9573;50.948;11.600;2022-07-23T02:01:00;19.20;99.90
18882;DHT22;9573;50.948;11.600;2022-07-23T02:03:27;19.10;99.90
18882;DHT22;9573;50.948;11.600;2022-07-23T02:05:54;19.00;99.90
18882;DHT22;9573;50.948;11.600;2022-07-23T02:08:21;18.90;99.90
18882;DHT22;9573;50.948;11.600;2022-07-23T02:10:49;18.90;99.90
18882;DHT22;9573;50.948;11.600;2022-07-23T02:13:17;18.90;99.90
18882;DHT22;9573;50.948;11.600;2022-07-23T02:15:46;18.90;99.90
18882;DHT22;9573;50.948;11.600;2022-07-23T02:18:14;18.80;99.90
18882;DHT22;9573;50.948;11.600;2022-07-23T02:20:41;18.70;99.90
18882;DHT22;9573;50.948;11.600;2022-07-23T02:23:10;18.70;99.90
18882;DHT22;9573;50.948;11.600;2022-07-23T02:25:37;18.60;99.90
18882;DHT22;9573;50.948;11.600;2022-07-23T02:28:04;18.60;99.90
18882;DHT22;9573;50.948;11.600;2022-07-23T02:30:31;18.60;99.90
18882;DHT22;9573;50.948;11.600;2022-07-23T02:32:59;18.70;99.90
18882;DHT22;9573;50.948;11.600;2022-07-23T02:35:27;18.60;99.90
18882;DHT22;9573;50.948;11.600;2022-07-23T02:37:54;18.60;99.90
18882;DHT22;9573;50.948;11.600;2022-07-23T02:40:21;18.60;99.90
18882;DHT22;9573;50.948;11.600;2022-07-23T02:42:48;18.50;99.90
18882;DHT22;9573;50.948;11.600;2022-07-23T02:45:15;18.60;99.90
18882;DHT22;9573;50.948;11.600;2022-07-23T02:47:42;18.60;99.90
18882;DHT22;9573;50.948;11.600;2022-07-23T02:50:10;18.60;99.90
18882;DHT22;9573;50.948;11.600;2022-07-23T02:52:38;18.60;99.90
18882;DHT22;9573;50.948;11.600;2022-07-23T02:55:06;18.50;99.90
18882;DHT22;9573;50.948;11.600;2022-07-23T02:57:34;18.50;99.90
18882;DHT22;9573;50.948;11.600;2022-07-23T03:00:01;18.50;99.90
18882;DHT22;9573;50.948;11.600;2022-07-23T03:02:28;18.50;99.90
18882;DHT22;9573;50.948;11.600;2022-07-23T03:04:55;18.50;99.90
18882;DHT22;9573;50.948;11.600;2022-07-23T03:07:24;18.50;99.90
18882;DHT22;9573;50.948;11.600;2022-07-23T03:09:51;18.50;99.90
18882;DHT22;9573;50.948;11.600;2022-07-23T03:12:18;18.50;99.90
18882;DHT22;9573;50.948;11.600;2022-07-23T03:14:45;18.50;99.90
18882;DHT22;9573;50.948;11.600;2022-07-23T03:17:12;18.50;99.90
18882;DHT22;9573;50.948;11.600;2022-07-23T03:19:39;18.60;99.90
18882;DHT22;9573;50.948;11.600;2022-07-23T03:22:07;18.60;99.90
18882;DHT22;9573;50.948;11.600;2022-07-23T03:24:35;18.60;99.90
18882;DHT22;9573;50.948;11.600;2022-07-23T03:27:21;18.70;99.90
18882;DHT22;9573;50.948;11.600;2022-07-23T03:29:48;18.40;99.90
18882;DHT22;9573;50.948;11.600;2022-07-23T03:32:16;18.40;99.90
18882;DHT22;9573;50.948;11.600;2022-07-23T03:34:43;18.40;99.90
18882;DHT22;9573;50.948;11.600;2022-07-23T03:37:10;18.40;99.90
18882;DHT22;9573;50.948;11.600;2022-07-23T03:39:39;18.10;99.90
18882;DHT22;9573;50.948;11.600;2022-07-23T03:42:07;17.90;99.90
18882;DHT22;9573;50.948;11.600;2022-07-23T03:44:34;17.70;99.90
18882;DHT22;9573;50.948;11.600;2022-07-23T03:47:04;17.40;99.90
18882;DHT22;9573;50.948;11.600;2022-07-23T03:49:31;17.20;99.90
18882;DHT22;9573;50.948;11.600;2022-07-23T03:51:58;17.10;99.90
18882;DHT22;9573;50.948;11.600;2022-07-23T03:54:26;17.00;99.90
18882;DHT22;9573;50.948;11.600;2022-07-23T03:56:54;17.00;99.90
18882;DHT22;9573;50.948;11.600;2022-07-23T03:59:21;17.00;99.90
18882;DHT22;9573;50.948;11.600;2022-07-23T04:01:49;17.10;99.90
18882;DHT22;9573;50.948;11.600;2022-07-23T04:04:16;17.20;99.90
18882;DHT22;9573;50.948;11.600;2022-07-23T04:06:43;17.30;99.90
18882;DHT22;9573;50.948;11.600;2022-07-23T04:09:10;17.50;99.90
18882;DHT22;9573;50.948;11.600;2022-07-23T04:11:37;17.60;99.90
18882;DHT22;9573;50.948;11.600;2022-07-23T04:14:06;17.60;99.90
18882;DHT22;9573;50.948;11.600;2022-07-23T04:16:33;17.70;99.90
18882;DHT22;9573;50.948;11.600;2022-07-23T04:19:00;17.70;99.90
18882;DHT22;9573;50.948;11.600;2022-07-23T04:21:30;17.70;99.90
18882;DHT22;9573;50.948;11.600;2022-07-23T04:23:57;17.80;99.90
18882;DHT22;9573;50.948;11.600;2022-07-23T04:26:24;17.80;99.90
18882;DHT22;9573;50.948;11.600;2022-07-23T04:28:51;17.70;99.90
18882;DHT22;9573;50.948;11.600;2022-07-23T04:31:20;17.70;99.90
18882;DHT22;9573;50.948;11.600;2022-07-23T04:33:47;17.80;99.90
18882;DHT22;9573;50.948;11.600;2022-07-23T04:36:14;17.80;99.90
18882;DHT22;9573;50.948;11.600;2022-07-23T04:38:41;17.90;99.90
18882;DHT22;9573;50.948;11.600;2022-07-23T04:41:08;17.90;99.90
18882;DHT22;9573;50.948;11.600;2022-07-23T04:43:35;18.00;99.90
18882;DHT22;9573;50.948;11.600;2022-07-23T04:46:03;18.20;99.90
18882;DHT22;9573;50.948;11.600;2022-07-23T04:48:31;18.40;99.90
18882;DHT22;9573;50.948;11.600;2022-07-23T04:50:58;18.60;99.90
18882;DHT22;9573;50.948;11.600;2022-07-23T04:53:25;18.80;99.90
18882;DHT22;9573;50.948;11.600;2022-07-23T04:55:53;19.10;99.90
18882;DHT22;9573;50.948;11.600;2022-07-23T04:58:20;19.30;99.90
18882;DHT22;9573;50.948;11.600;2022-07-23T05:00:47;19.30;99.90
18882;DHT22;9573;50.948;11.600;2022-07-23T05:03:16;19.30;99.90
18882;DHT22;9573;50.948;11.600;2022-07-23T05:05:45;19.30;99.90
18882;DHT22;9573;50.948;11.600;2022-07-23T05:08:13;19.00;99.90
18882;DHT22;9573;50.948;11.600;2022-07-23T05:10:40;18.70;99.90
18882;DHT22;9573;50.948;11.600;2022-07-23T05:13:07;18.50;99.90
18882;DHT22;9573;50.948;11.600;2022-07-23T05:15:35;18.60;99.90
18882;DHT22;9573;50.948;11.600;2022-07-23T05:18:02;18.70;99.90
18882;DHT22;9573;50.948;11.600;2022-07-23T05:20:29;18.80;99.90
18882;DHT22;9573;50.948;11.600;2022-07-23T05:22:58;18.90;99.90
18882;DHT22;9573;50.948;11.600;2022-07-23T05:25:25;19.00;99.90
18882;DHT22;9573;50.948;11.600;2022-07-23T05:27:52;18.90;99.90
18882;DHT22;9573;50.948;11.600;2022-07-23T05:30:20;18.90;99.90
18882;DHT22;9573;50.948;11.600;2022-07-23T05:32:47;18.80;99.90
18882;DHT22;9573;50.948;11.600;2022-07-23T05:35:14;18.70;99.90
18882;DHT22;9573;50.948;11.600;2022-07-23T05:37:42;18.70;99.90
18882;DHT22;9573;50.948;11.600;2022-07-23T05:40:11;18.60;99.90
18882;DHT22;9573;50.948;11.600;2022-07-23T05:42:40;18.60;99.90
18882;DHT22;9573;50.948;11.600;2022-07-23T05:45:08;18.80;99.90
18882;DHT22;9573;50.948;11.600;2022-07-23T05:47:40;18.90;99.90
18882;DHT22;9573;50.948;11.600;2022-07-23T05:50:09;18.90;99.90
18882;DHT22;9573;50.948;11.600;2022-07-23T05:52:37;19.00;99.90
18882;DHT22;9573;50.948;11.600;2022-07-23T05:55:06;19.00;99.90
18882;DHT22;9573;50.948;11.600;2022-07-23T05:57:35;19.00;99.90
18882;DHT22;9573;50.948;11.600;2022-07-23T06:00:03;19.10;99.90
18882;DHT22;9573;50.948;11.600;2022-07-23T06:02:33;19.30;99.90
18882;DHT22;9573;50.948;11.600;2022-07-23T06:05:00;19.50;99.90
18882;DHT22;9573;50.948;11.600;2022-07-23T06:07:27;20.50;99.90
18882;DHT22;9573;50.948;11.600;2022-07-23T06:09:54;21.20;99.90
18882;DHT22;9573;50.948;11.600;2022-07-23T06:12:21;21.30;99.90
18882;DHT22;9573;50.948;11.600;2022-07-23T06:14:51;21.20;99.90
18882;DHT22;9573;50.948;11.600;2022-07-23T06:17:18;21.00;99.90
18882;DHT22;9573;50.948;11.600;2022-07-23T06:19:45;21.30;99.90
18882;DHT22;9573;50.948;11.600;2022-07-23T06:22:12;21.80;99.90
18882;DHT22;9573;50.948;11.600;2022-07-23T06:24:39;22.30;99.90
18882;DHT22;9573;50.948;11.600;2022-07-23T06:27:07;22.80;99.90
18882;DHT22;9573;50.948;11.600;2022-07-23T06:29:34;23.60;99.90
18882;DHT22;9573;50.948;11.600;2022-07-23T06:32:02;23.80;99.90
18882;DHT22;9573;50.948;11.600;2022-07-23T06:34:30;23.90;99.90
18882;DHT22;9573;50.948;11.600;2022-07-23T06:36:57;23.60;99.90
18882;DHT22;9573;50.948;11.600;2022-07-23T06:39:24;23.40;99.90
18882;DHT22;9573;50.948;11.600;2022-07-23T06:41:51;23.40;99.90
18882;DHT22;9573;50.948;11.600;2022-07-23T06:44:20;23.70;99.90
18882;DHT22;9573;50.948;11.600;2022-07-23T06:46:47;24.50;99.90
18882;DHT22;9573;50.948;11.600;2022-07-23T06:49:15;25.30;99.90
18882;DHT22;9573;50.948;11.600;2022-07-23T06:51:42;26.40;99.90
18882;DHT22;9573;50.948;11.600;2022-07-23T06:54:10;27.90;99.90
18882;DHT22;9573;50.948;11.600;2022-07-23T06:56:37;27.70;99.90
18882;DHT22;9573;50.948;11.600;2022-07-23T06:59:04;27.80;99.90
18882;DHT22;9573;50.948;11.600;2022-07-23T07:01:32;27.20;99.90
18882;DHT22;9573;50.948;11.600;2022-07-23T07:03:59;26.90;99.90
18882;DHT22;9573;50.948;11.600;2022-07-23T07:06:27;26.00;99.90
18882;DHT22;9573;50.948;11.600;2022-07-23T07:08:54;25.30;99.90
18882;DHT22;9573;50.948;11.600;2022-07-23T07:11:22;25.00;99.90
18882;DHT22;9573;50.948;11.600;2022-07-23T07:13:51;25.50;99.90
18882;DHT22;9573;50.948;11.600;2022-07-23T07:16:18;27.40;99.90
18882;DHT22;9573;50.948;11.600;2022-07-23T07:18:45;29.60;99.90
18882;DHT22;9573;50.948;11.600;2022-07-23T07:21:13;30.00;97.20
18882;DHT22;9573;50.948;11.600;2022-07-23T07:23:44;29.80;95.40
18882;DHT22;9573;50.948;11.600;2022-07-23T07:26:11;28.80;96.50
18882;DHT22;9573;50.948;11.600;2022-07-23T07:28:38;28.30;97.10
18882;DHT22;9573;50.948;11.600;2022-07-23T07:31:05;28.40;97.70
18882;DHT22;9573;50.948;11.600;2022-07-23T07:33:32;29.80;96.30
18882;DHT22;9573;50.948;11.600;2022-07-23T07:35:59;31.20;92.50
18882;DHT22;9573;50.948;11.600;2022-07-23T07:38:27;30.40;91.40
18882;DHT22;9573;50.948;11.600;2022-07-23T07:40:55;30.10;92.00
18882;DHT22;9573;50.948;11.600;2022-07-23T07:43:22;28.90;92.80
18882;DHT22;9573;50.948;11.600;2022-07-23T07:45:49;28.40;94.60
18882;DHT22;9573;50.948;11.600;2022-07-23T07:48:17;27.40;95.40
18882;DHT22;9573;50.948;11.600;2022-07-23T07:50:44;26.60;97.00
18882;DHT22;9573;50.948;11.600;2022-07-23T07:53:11;26.10;98.10
18882;DHT22;9573;50.948;11.600;2022-07-23T07:55:38;26.10;99.30
18882;DHT22;9573;50.948;11.600;2022-07-23T07:58:06;25.90;99.90
18882;DHT22;9573;50.948;11.600;2022-07-23T08:00:33;25.90;99.90
18882;DHT22;9573;50.948;11.600;2022-07-23T08:03:01;25.70;99.90
18882;DHT22;9573;50.948;11.600;2022-07-23T08:05:29;25.70;99.90
18882;DHT22;9573;50.948;11.600;2022-07-23T08:07:58;26.20;99.90
18882;DHT22;9573;50.948;11.600;2022-07-23T08:10:26;26.90;99.60
18882;DHT22;9573;50.948;11.600;2022-07-23T08:12:55;27.70;97.80
18882;DHT22;9573;50.948;11.600;2022-07-23T08:15:26;27.80;97.20
18882;DHT22;9573;50.948;11.600;2022-07-23T08:17:55;28.00;96.90
18882;DHT22;9573;50.948;11.600;2022-07-23T08:20:24;28.40;96.10
18882;DHT22;9573;50.948;11.600;2022-07-23T08:22:52;29.20;95.40
18882;DHT22;9573;50.948;11.600;2022-07-23T08:25:22;29.60;93.10
18882;DHT22;9573;50.948;11.600;2022-07-23T08:27:50;29.70;92.30
18882;DHT22;9573;50.948;11.600;2022-07-23T08:30:18;29.40;92.80
18882;DHT22;9573;50.948;11.600;2022-07-23T08:32:54;28.30;93.20
18882;DHT22;9573;50.948;11.600;2022-07-23T08:35:29;27.90;94.70
18882;DHT22;9573;50.948;11.600;2022-07-23T08:37:58;27.90;95.10
18882;DHT22;9573;50.948;11.600;2022-07-23T08:40:26;27.40;95.50
18882;DHT22;9573;50.948;11.600;2022-07-23T08:42:55;26.80;96.70
18882;DHT22;9573;50.948;11.600;2022-07-23T08:45:23;25.90;98.20
18882;DHT22;9573;50.948;11.600;2022-07-23T08:47:54;25.10;99.90
18882;DHT22;9573;50.948;11.600;2022-07-23T08:50:24;24.60;99.90
18882;DHT22;9573;50.948;11.600;2022-07-23T08:52:52;24.20;99.90
18882;DHT22;9573;50.948;11.600;2022-07-23T08:55:22;24.10;99.90
18882;DHT22;9573;50.948;11.600;2022-07-23T08:57:51;23.70;99.90
18882;DHT22;9573;50.948;11.600;2022-07-23T09:00:20;23.20;99.90
18882;DHT22;9573;50.948;11.600;2022-07-23T09:02:48;23.10;99.90
18882;DHT22;9573;50.948;11.600;2022-07-23T09:05:18;23.00;99.90
18882;DHT22;9573;50.948;11.600;2022-07-23T09:08:09;22.90;99.90
18882;DHT22;9573;50.948;11.600;2022-07-23T09:10:50;22.60;99.90
18882;DHT22;9573;50.948;11.600;2022-07-23T09:13:33;22.80;99.90
18882;DHT22;9573;50.948;11.600;2022-07-23T09:16:05;23.10;99.90
18882;DHT22;9573;50.948;11.600;2022-07-23T09:18:37;23.20;99.90
18882;DHT22;9573;50.948;11.600;2022-07-23T09:21:08;23.20;99.90
18882;DHT22;9573;50.948;11.600;2022-07-23T09:23:43;23.00;99.90
18882;DHT22;9573;50.948;11.600;2022-07-23T09:26:18;23.10;99.90
18882;DHT22;9573;50.948;11.600;2022-07-23T09:28:57;23.50;99.90
18882;DHT22;9573;50.948;11.600;2022-07-23T09:31:43;24.00;99.90
18882;DHT22;9573;50.948;11.600;2022-07-23T09:34:20;24.70;99.90
18882;DHT22;9573;50.948;11.600;2022-07-23T09:36:51;25.10;99.90
18882;DHT22;9573;50.948;11.600;2022-07-23T09:39:25;25.30;99.90
18882;DHT22;9573;50.948;11.600;2022-07-23T09:41:54;25.20;99.90
18882;DHT22;9573;50.948;11.600;2022-07-23T09:44:21;25.20;99.90
18882;DHT22;9573;50.948;11.600;2022-07-23T09:46:50;24.90;99.90
18882;DHT22;9573;50.948;11.600;2022-07-23T09:49:24;24.70;99.90
18882;DHT22;9573;50.948;11.600;2022-07-23T09:51:55;24.60;99.90
18882;DHT22;9573;50.948;11.600;2022-07-23T09:54:25;24.70;99.90
18882;DHT22;9573;50.948;11.600;2022-07-23T09:56:55;25.20;99.90
18882;DHT22;9573;50.948;11.600;2022-07-23T09:59:25;25.10;99.90
18882;DHT22;9573;50.948;11.600;2022-07-23T10:01:55;24.80;99.90
18882;DHT22;9573;50.948;11.600;2022-07-23T10:04:26;24.80;99.90
18882;DHT22;9573;50.948;11.600;2022-07-23T10:06:58;24.50;99.90
18882;DHT22;9573;50.948;11.600;2022-07-23T10:09:28;25.00;99.90
18882;DHT22;9573;50.948;11.600;2022-07-23T10:11:57;25.30;99.90
18882;DHT22;9573;50.948;11.600;2022-07-23T10:14:42;25.20;99.90
18882;DHT22;9573;50.948;11.600;2022-07-23T10:17:10;25.40;99.90
18882;DHT22;9573;50.948;11.600;2022-07-23T10:19:38;25.20;99.90
18882;DHT22;9573;50.948;11.600;2022-07-23T10:22:09;25.30;99.90
18882;DHT22;9573;50.948;11.600;2022-07-23T10:25:04;25.50;99.90
18882;DHT22;9573;50.948;11.600;2022-07-23T10:28:04;25.90;99.90
18882;DHT22;9573;50.948;11.600;2022-07-23T10:30:40;26.20;99.90
18882;DHT22;9573;50.948;11.600;2022-07-23T10:33:17;26.90;99.90
18882;DHT22;9573;50.948;11.600;2022-07-23T10:35:56;28.60;99.90
18882;DHT22;9573;50.948;11.600;2022-07-23T10:38:30;29.40;99.90
18882;DHT22;9573;50.948;11.600;2022-07-23T10:41:02;29.50;99.10
18882;DHT22;9573;50.948;11.600;2022-07-23T10:43:30;29.70;98.40
18882;DHT22;9573;50.948;11.600;2022-07-23T10:46:22;30.70;95.70
18882;DHT22;9573;50.948;11.600;2022-07-23T10:49:24;30.40;93.50
18882;DHT22;9573;50.948;11.600;2022-07-23T10:52:18;29.90;94.40
18882;DHT22;9573;50.948;11.600;2022-07-23T10:54:49;30.40;93.70
18882;DHT22;9573;50.948;11.600;2022-07-23T10:57:18;30.00;93.70
18882;DHT22;9573;50.948;11.600;2022-07-23T11:00:13;29.60;94.30
18882;DHT22;9573;50.948;11.600;2022-07-23T11:02:45;28.50;95.60
18882;DHT22;9573;50.948;11.600;2022-07-23T11:05:14;28.30;96.50
18882;DHT22;9573;50.948;11.600;2022-07-23T11:08:17;28.00;96.90
18882;DHT22;9573;50.948;11.600;2022-07-23T11:10:55;28.50;96.60
18882;DHT22;9573;50.948;11.600;2022-07-23T11:16:21;28.50;96.50
18882;DHT22;9573;50.948;11.600;2022-07-23T11:19:05;29.00;96.40
18882;DHT22;9573;50.948;11.600;2022-07-23T11:22:00;29.40;95.20
18882;DHT22;9573;50.948;11.600;2022-07-23T11:24:27;29.90;94.10
18882;DHT22;9573;50.948;11.600;2022-07-23T11:27:00;30.30;93.40
18882;DHT22;9573;50.948;11.600;2022-07-23T11:29:47;30.10;93.10
18882;DHT22;9573;50.948;11.600;2022-07-23T11:32:37;30.80;91.90
18882;DHT22;9573;50.948;11.600;2022-07-23T11:35:25;31.20;91.10
18882;DHT22;9573;50.948;11.600;2022-07-23T11:38:02;30.80;90.40
18882;DHT22;9573;50.948;11.600;2022-07-23T11:40:30;31.20;90.60
18882;DHT22;9573;50.948;11.600;2022-07-23T11:43:01;31.50;90.20
18882;DHT22;9573;50.948;11.600;2022-07-23T11:45:32;31.60;88.80
18882;DHT22;9573;50.948;11.600;2022-07-23T11:48:01;31.10;89.00
18882;DHT22;9573;50.948;11.600;2022-07-23T11:50:30;30.70;89.50
18882;DHT22;9573;50.948;11.600;2022-07-23T11:52:57;30.20;90.10
18882;DHT22;9573;50.948;11.600;2022-07-23T11:55:25;30.10;90.80
18882;DHT22;9573;50.948;11.600;2022-07-23T11:57:54;29.70;90.70
18882;DHT22;9573;50.948;11.600;2022-07-23T12:00:26;28.80;91.80
18882;DHT22;9573;50.948;11.600;2022-07-23T12:02:56;27.60;93.70
18882;DHT22;9573;50.948;11.600;2022-07-23T12:05:29;26.80;95.50
18882;DHT22;9573;50.948;11.600;2022-07-23T12:07:58;26.40;96.90
18882;DHT22;9573;50.948;11.600;2022-07-23T12:10:28;25.90;98.50
18882;DHT22;9573;50.948;11.600;2022-07-23T12:12:57;25.50;99.50
18882;DHT22;9573;50.948;11.600;2022-07-23T12:15:29;25.40;99.90
18882;DHT22;9573;50.948;11.600;2022-07-23T12:17:59;25.80;99.90
18882;DHT22;9573;50.948;11.600;2022-07-23T12:20:29;26.70;99.60
18882;DHT22;9573;50.948;11.600;2022-07-23T12:23:00;27.60;98.00
18882;DHT22;9573;50.948;11.600;2022-07-23T12:25:29;28.20;96.80
18882;DHT22;9573;50.948;11.600;2022-07-23T12:28:03;28.40;96.10
18882;DHT22;9573;50.948;11.600;2022-07-23T12:30:37;29.10;95.40
18882;DHT22;9573;50.948;11.600;2022-07-23T12:33:07;30.40;93.00
18882;DHT22;9573;50.948;11.600;2022-07-23T12:35:38;31.20;91.30
18882;DHT22;9573;50.948;11.600;2022-07-23T12:38:09;31.30;89.60
18882;DHT22;9573;50.948;11.600;2022-07-23T12:40:42;31.10;87.10
18882;DHT22;9573;50.948;11.600;2022-07-23T12:43:19;30.70;88.70
18882;DHT22;9573;50.948;11.600;2022-07-23T12:45:50;31.20;87.80
18882;DHT22;9573;50.948;11.600;2022-07-23T12:48:21;31.60;86.70
18882;DHT22;9573;50.948;11.600;2022-07-23T12:51:00;31.60;85.50
18882;DHT22;9573;50.948;11.600;2022-07-23T12:53:29;31.60;85.50
18882;DHT22;9573;50.948;11.600;2022-07-23T12:56:01;31.00;86.30
18882;DHT22;9573;50.948;11.600;2022-07-23T12:58:41;30.80;87.10
18882;DHT22;9573;50.948;11.600;2022-07-23T13:01:24;30.90;86.70
18882;DHT22;9573;50.948;11.600;2022-07-23T13:03:57;30.50;87.60
18882;DHT22;9573;50.948;11.600;2022-07-23T13:06:26;30.50;88.10
18882;DHT22;9573;50.948;11.600;2022-07-23T13:08:55;30.50;87.90
18882;DHT22;9573;50.948;11.600;2022-07-23T13:11:25;30.50;88.00
18882;DHT22;9573;50.948;11.600;2022-07-23T13:13:52;30.50;87.20
18882;DHT22;9573;50.948;11.600;2022-07-23T13:16:19;30.20;87.90
18882;DHT22;9573;50.948;11.600;2022-07-23T13:18:48;29.90;88.90
18882;DHT22;9573;50.948;11.600;2022-07-23T13:21:15;29.50;89.10
18882;DHT22;9573;50.948;11.600;2022-07-23T13:23:42;29.60;88.90
18882;DHT22;9573;50.948;11.600;2022-07-23T13:26:09;29.40;89.10
18882;DHT22;9573;50.948;11.600;2022-07-23T13:28:37;29.10;90.20
18882;DHT22;9573;50.948;11.600;2022-07-23T13:31:04;28.90;90.50
18882;DHT22;9573;50.948;11.600;2022-07-23T13:33:31;28.80;90.70
18882;DHT22;9573;50.948;11.600;2022-07-23T13:36:00;28.50;91.20
18882;DHT22;9573;50.948;11.600;2022-07-23T13:38:27;28.00;91.30
18882;DHT22;9573;50.948;11.600;2022-07-23T13:40:55;27.50;91.40
18882;DHT22;9573;50.948;11.600;2022-07-23T13:43:24;27.10;92.70
18882;DHT22;9573;50.948;11.600;2022-07-23T13:45:52;27.10;93.10
18882;DHT22;9573;50.948;11.600;2022-07-23T13:48:20;27.20;93.30
18882;DHT22;9573;50.948;11.600;2022-07-23T13:50:48;27.30;93.40
18882;DHT22;9573;50.948;11.600;2022-07-23T13:53:18;27.50;92.10
18882;DHT22;9573;50.948;11.600;2022-07-23T13:55:48;27.60;92.10
18882;DHT22;9573;50.948;11.600;2022-07-23T13:58:18;27.30;92.10
18882;DHT22;9573;50.948;11.600;2022-07-23T14:00:47;26.90;92.70
18882;DHT22;9573;50.948;11.600;2022-07-23T14:03:15;26.70;93.20
18882;DHT22;9573;50.948;11.600;2022-07-23T14:05:43;26.90;93.30
18882;DHT22;9573;50.948;11.600;2022-07-23T14:08:10;26.70;92.20
18882;DHT22;9573;50.948;11.600;2022-07-23T14:10:39;26.70;92.30
18882;DHT22;9573;50.948;11.600;2022-07-23T14:13:06;26.60;92.10
18882;DHT22;9573;50.948;11.600;2022-07-23T14:15:34;26.70;91.90
18882;DHT22;9573;50.948;11.600;2022-07-23T14:18:02;26.90;91.60
18882;DHT22;9573;50.948;11.600;2022-07-23T14:20:29;27.00;92.10
18882;DHT22;9573;50.948;11.600;2022-07-23T14:22:57;27.20;91.70
18882;DHT22;9573;50.948;11.600;2022-07-23T14:25:26;27.30;91.50
18882;DHT22;9573;50.948;11.600;2022-07-23T14:27:54;27.20;91.60
18882;DHT22;9573;50.948;11.600;2022-07-23T14:30:21;27.30;91.20
18882;DHT22;9573;50.948;11.600;2022-07-23T14:32:49;27.40;90.80
18882;DHT22;9573;50.948;11.600;2022-07-23T14:35:17;27.50;90.00
18882;DHT22;9573;50.948;11.600;2022-07-23T14:37:45;27.60;89.30
18882;DHT22;9573;50.948;11.600;2022-07-23T14:40:12;27.80;89.90
18882;DHT22;9573;50.948;11.600;2022-07-23T14:42:40;27.90;89.60
18882;DHT22;9573;50.948;11.600;2022-07-23T14:45:09;28.20;89.10
18882;DHT22;9573;50.948;11.600;2022-07-23T14:47:36;28.10;87.60
18882;DHT22;9573;50.948;11.600;2022-07-23T14:50:05;28.10;87.40
18882;DHT22;9573;50.948;11.600;2022-07-23T14:52:33;28.00;86.10
18882;DHT22;9573;50.948;11.600;2022-07-23T14:55:00;27.90;86.30
18882;DHT22;9573;50.948;11.600;2022-07-23T14:57:27;27.50;86.50
18882;DHT22;9573;50.948;11.600;2022-07-23T14:59:55;27.50;88.00
18882;DHT22;9573;50.948;11.600;2022-07-23T15:02:23;27.40;87.00
18882;DHT22;9573;50.948;11.600;2022-07-23T15:04:50;27.20;88.40
18882;DHT22;9573;50.948;11.600;2022-07-23T15:07:18;27.00;89.20
18882;DHT22;9573;50.948;11.600;2022-07-23T15:09:45;26.90;89.90
18882;DHT22;9573;50.948;11.600;2022-07-23T15:12:12;26.90;90.30
18882;DHT22;9573;50.948;11.600;2022-07-23T15:14:39;26.70;89.70
18882;DHT22;9573;50.948;11.600;2022-07-23T15:17:06;26.80;90.30
18882;DHT22;9573;50.948;11.600;2022-07-23T15:19:35;26.80;90.40
18882;DHT22;9573;50.948;11.600;2022-07-23T15:22:02;26.90;90.50
18882;DHT22;9573;50.948;11.600;2022-07-23T15:24:30;27.00;89.60
18882;DHT22;9573;50.948;11.600;2022-07-23T15:26:57;27.10;89.70
18882;DHT22;9573;50.948;11.600;2022-07-23T15:29:25;27.10;89.20
18882;DHT22;9573;50.948;11.600;2022-07-23T15:31:52;27.20;88.40
18882;DHT22;9573;50.948;11.600;2022-07-23T15:34:19;27.20;88.00
18882;DHT22;9573;50.948;11.600;2022-07-23T15:36:48;27.10;88.50
18882;DHT22;9573;50.948;11.600;2022-07-23T15:39:15;27.10;88.40
18882;DHT22;9573;50.948;11.600;2022-07-23T15:41:42;27.10;88.40
18882;DHT22;9573;50.948;11.600;2022-07-23T15:44:09;26.90;88.80
18882;DHT22;9573;50.948;11.600;2022-07-23T15:46:36;26.90;89.50